Time;durP1;ratioP1;P1;durP2;ratioP2;P2;SDS_P1;SDS_P2;PMS_P1;PMS_P2;Temp;Humidity;BMP_temperature;BMP_pressure;BME280_temperature;BME280_humidity;BME280_pressure;Samples;Min_cycle;Max_cycle;Signal;HPM_P1;HPM_P2
2023/02/10 00:01:47;;;;;;;0.70;0.60;;;;;;;;;;5014561;28;20302;-75
2023/02/10 00:04:16;;;;;;;0.70;0.70;;;;;;;;;;5010336;28;20207;-75
2023/02/10 00:06:43;;;;;;;1.55;1.25;;;;;;;;;;5012931;28;20233;-75
2023/02/10 00:09:11;;;;;;;0.70;0.70;;;;;;;;;;5008851;28;20550;-75
2023/02/10 00:14:23;;;;;;;0.80;0.80;;;;;;;;;;5010497;28;20186;-74
2023/02/10 00:16:51;;;;;;;0.70;0.70;;;;;;;;;;5009869;28;20207;-74
2023/02/10 00:19:21;;;;;;;0.77;0.75;;;;;;;;;;5002526;28;20191;-73
2023/02/10 00:21:48;;;;;;;0.98;0.98;;;;;;;;;;5011747;28;20190;-74
2023/02/10 00:24:15;;;;;;;0.70;0.60;;;;;;;;;;5003710;28;20335;-74
2023/02/10 00:26:42;;;;;;;0.70;0.60;;;;;;;;;;4997704;28;20665;-75
2023/02/10 00:29:31;;;;;;;0.88;0.88;;;;;;;;;;5012922;28;20218;-75
2023/02/10 00:32:00;;;;;;;0.82;0.82;;;;;;;;;;5009377;28;20197;-75
2023/02/10 00:34:28;;;;;;;0.70;0.60;;;;;;;;;;5003644;28;20675;-75
2023/02/10 00:36:55;;;;;;;0.70;0.60;;;;;;;;;;5009114;28;20536;-74
2023/02/10 00:39:22;;;;;;;0.70;0.70;;;;;;;;;;5000515;28;20310;-75
2023/02/10 00:41:49;;;;;;;1.23;1.13;;;;;;;;;;5005723;28;20603;-74
2023/02/10 00:44:17;;;;;;;2.10;1.90;;;;;;;;;;5007834;28;20207;-75
2023/02/10 00:46:43;;;;;;;1.25;1.15;;;;;;;;;;5011001;28;20768;-75
2023/02/10 00:49:11;;;;;;;0.70;0.70;;;;;;;;;;4994071;28;22109;-75
2023/02/10 00:51:39;;;;;;;0.70;0.70;;;;;;;;;;5004861;28;20297;-74
2023/02/10 00:54:06;;;;;;;0.85;0.85;;;;;;;;;;5002909;28;20289;-75
2023/02/10 00:56:33;;;;;;;0.70;0.60;;;;;;;;;;5022847;28;20226;-75
2023/02/10 00:59:00;;;;;;;0.70;0.60;;;;;;;;;;5011445;28;20195;-74
2023/02/10 01:01:27;;;;;;;1.27;1.17;;;;;;;;;;4993697;28;20193;-74
2023/02/10 01:03:53;;;;;;;0.73;0.73;;;;;;;;;;5008383;28;20306;-74
2023/02/10 01:06:21;;;;;;;0.80;0.80;;;;;;;;;;5005400;28;20222;-74
2023/02/10 01:08:49;;;;;;;0.70;0.60;;;;;;;;;;4999250;28;20260;-74
2023/02/10 01:11:16;;;;;;;1.13;1.02;;;;;;;;;;5005956;28;20204;-75
2023/02/10 01:13:45;;;;;;;0.80;0.80;;;;;;;;;;5015787;28;20202;-74
2023/02/10 01:16:13;;;;;;;0.70;0.70;;;;;;;;;;5007959;28;20310;-75
2023/02/10 01:18:40;;;;;;;0.82;0.82;;;;;;;;;;5001005;28;20214;-73
2023/02/10 01:21:08;;;;;;;0.70;0.60;;;;;;;;;;5008489;28;20222;-74
2023/02/10 01:23:34;;;;;;;0.70;0.70;;;;;;;;;;5007040;28;20346;-75
2023/02/10 01:26:03;;;;;;;0.70;0.70;;;;;;;;;;5005499;28;20223;-74
2023/02/10 01:28:31;;;;;;;0.70;0.70;;;;;;;;;;5010164;28;20218;-74
2023/02/10 01:31:04;;;;;;;0.70;0.60;;;;;;;;;;5018787;28;20683;-75
2023/02/10 01:33:31;;;;;;;0.90;0.90;;;;;;;;;;5006931;28;20201;-75
2023/02/10 01:36:03;;;;;;;0.80;0.80;;;;;;;;;;5021504;28;20663;-74
2023/02/10 01:38:29;;;;;;;0.70;0.60;;;;;;;;;;4982957;28;20220;-75
2023/02/10 01:41:01;;;;;;;0.70;0.60;;;;;;;;;;5005306;28;20199;-75
2023/02/10 01:43:30;;;;;;;0.68;0.60;;;;;;;;;;5008321;28;20683;-75
2023/02/10 01:45:57;;;;;;;0.60;0.60;;;;;;;;;;5002103;28;20198;-74
2023/02/10 01:48:27;;;;;;;0.70;0.60;;;;;;;;;;4992765;28;20272;-73
2023/02/10 01:51:03;;;;;;;0.80;0.80;;;;;;;;;;5004979;28;20225;-75
2023/02/10 01:53:31;;;;;;;0.70;0.60;;;;;;;;;;5006751;28;20213;-75
2023/02/10 01:56:00;;;;;;;0.70;0.70;;;;;;;;;;4985261;28;20210;-74
2023/02/10 01:58:29;;;;;;;0.70;0.60;;;;;;;;;;5014391;28;20590;-73
2023/02/10 02:00:58;;;;;;;0.70;0.70;;;;;;;;;;5009010;28;20286;-74
2023/02/10 02:03:25;;;;;;;0.70;0.70;;;;;;;;;;5008952;28;20202;-73
2023/02/10 02:05:52;;;;;;;0.70;0.70;;;;;;;;;;5008010;28;20205;-74
2023/02/10 02:08:23;;;;;;;0.70;0.70;;;;;;;;;;5005202;28;20215;-73
2023/02/10 02:10:54;;;;;;;0.70;0.70;;;;;;;;;;5006708;28;20714;-73
2023/02/10 02:13:25;;;;;;;0.70;0.70;;;;;;;;;;5012292;28;20253;-73
2023/02/10 02:16:01;;;;;;;0.70;0.60;;;;;;;;;;5004585;28;20205;-74
2023/02/10 02:18:32;;;;;;;0.68;0.65;;;;;;;;;;5019244;28;20662;-75
2023/02/10 02:21:16;;;;;;;1.02;0.95;;;;;;;;;;5003658;28;20557;-75
2023/02/10 02:24:06;;;;;;;0.98;0.88;;;;;;;;;;5007026;28;20222;-73
2023/02/10 02:27:05;;;;;;;1.20;1.10;;;;;;;;;;5021153;28;20680;-73
2023/02/10 02:33:19;;;;;;;0.70;0.70;;;;;;;;;;4983972;28;20196;-74
2023/02/10 02:35:54;;;;;;;0.70;0.70;;;;;;;;;;5013810;28;20249;-73
2023/02/10 02:38:37;;;;;;;4.53;0.90;;;;;;;;;;5007193;28;20919;-75
2023/02/10 02:41:06;;;;;;;0.95;0.95;;;;;;;;;;4974472;28;20194;-75
2023/02/10 02:43:36;;;;;;;0.82;0.82;;;;;;;;;;5005907;28;20195;-75
2023/02/10 02:46:11;;;;;;;0.70;0.70;;;;;;;;;;5008005;28;20239;-74
2023/02/10 02:48:55;;;;;;;0.70;0.60;;;;;;;;;;5003808;28;20223;-75
2023/02/10 02:51:34;;;;;;;0.80;0.80;;;;;;;;;;4988725;28;21010;-74
2023/02/10 02:54:25;;;;;;;0.70;0.70;;;;;;;;;;5009216;28;20270;-74
2023/02/10 02:57:02;;;;;;;0.70;0.65;;;;;;;;;;5004285;28;20334;-75
2023/02/10 02:59:35;;;;;;;0.70;0.60;;;;;;;;;;5006651;28;20209;-74
2023/02/10 03:02:11;;;;;;;3.55;2.03;;;;;;;;;;5008294;28;20256;-74
2023/02/10 03:04:45;;;;;;;1.02;1.02;;;;;;;;;;5000355;28;20654;-74
2023/02/10 03:07:15;;;;;;;0.80;0.80;;;;;;;;;;5005258;28;20199;-74
2023/02/10 03:09:43;;;;;;;0.80;0.80;;;;;;;;;;5008044;28;20310;-74
2023/02/10 03:12:12;;;;;;;0.70;0.60;;;;;;;;;;5003191;28;20195;-74
2023/02/10 03:14:40;;;;;;;0.70;0.60;;;;;;;;;;5009093;28;20192;-74
2023/02/10 03:17:14;;;;;;;0.70;0.70;;;;;;;;;;5010461;28;20199;-74
2023/02/10 03:19:47;;;;;;;0.82;0.82;;;;;;;;;;5009931;28;20180;-73
2023/02/10 03:22:17;;;;;;;0.70;0.60;;;;;;;;;;5005773;28;20198;-74
2023/02/10 03:24:49;;;;;;;11.13;2.10;;;;;;;;;;5005771;28;20230;-73
2023/02/10 03:27:19;;;;;;;0.70;0.70;;;;;;;;;;5007818;28;20578;-74
2023/02/10 03:29:49;;;;;;;0.70;0.70;;;;;;;;;;5011352;28;20186;-74
2023/02/10 03:32:20;;;;;;;0.70;0.70;;;;;;;;;;5009259;28;20205;-75
2023/02/10 03:34:53;;;;;;;0.70;0.60;;;;;;;;;;5010962;28;20556;-74
2023/02/10 03:37:43;;;;;;;0.70;0.70;;;;;;;;;;5008026;28;20341;-74
2023/02/10 03:40:13;;;;;;;0.60;0.60;;;;;;;;;;5006264;28;20219;-73
2023/02/10 03:42:45;;;;;;;1.25;1.15;;;;;;;;;;4996000;28;20203;-73
2023/02/10 03:45:18;;;;;;;0.80;0.80;;;;;;;;;;5007347;28;20249;-74
2023/02/10 03:47:50;;;;;;;0.70;0.70;;;;;;;;;;5001990;28;20199;-73
2023/02/10 03:50:25;;;;;;;0.70;0.60;;;;;;;;;;4989977;28;20218;-74
2023/02/10 03:53:14;;;;;;;0.70;0.70;;;;;;;;;;5004944;28;20218;-74
2023/02/10 03:55:45;;;;;;;1.50;1.40;;;;;;;;;;5001481;28;20254;-74
2023/02/10 03:58:14;;;;;;;0.70;0.70;;;;;;;;;;5003006;28;20191;-74
2023/02/10 04:00:42;;;;;;;0.80;0.80;;;;;;;;;;5008009;28;20190;-74
2023/02/10 04:03:13;;;;;;;0.93;0.93;;;;;;;;;;5005515;28;20195;-74
2023/02/10 04:05:45;;;;;;;0.70;0.70;;;;;;;;;;5010888;28;20199;-74
2023/02/10 04:08:34;;;;;;;0.70;0.60;;;;;;;;;;5010131;28;20217;-73
2023/02/10 04:11:02;;;;;;;0.70;0.70;;;;;;;;;;5003466;28;20297;-72
2023/02/10 04:13:29;;;;;;;0.70;0.70;;;;;;;;;;5009386;28;20294;-75
2023/02/10 04:16:00;;;;;;;0.70;0.70;;;;;;;;;;4992298;28;20200;-74
2023/02/10 04:18:30;;;;;;;0.70;0.70;;;;;;;;;;5008131;28;20215;-74
2023/02/10 04:21:20;;;;;;;0.70;0.60;;;;;;;;;;5008022;28;20579;-73
2023/02/10 04:23:47;;;;;;;0.70;0.70;;;;;;;;;;5010125;28;20223;-75
2023/02/10 04:26:15;;;;;;;0.70;0.70;;;;;;;;;;5006772;28;20792;-73
2023/02/10 04:28:42;;;;;;;1.35;1.25;;;;;;;;;;5021644;28;20203;-74
2023/02/10 04:31:09;;;;;;;1.58;1.30;;;;;;;;;;5009791;28;20213;-74
2023/02/10 04:33:36;;;;;;;0.75;0.75;;;;;;;;;;5008709;28;20596;-74
2023/02/10 04:36:04;;;;;;;1.10;1.00;;;;;;;;;;5007892;28;20191;-74
2023/02/10 04:38:32;;;;;;;0.80;0.80;;;;;;;;;;5006299;28;20210;-74
2023/02/10 04:40:59;;;;;;;0.70;0.60;;;;;;;;;;5000437;28;20649;-73
2023/02/10 04:43:25;;;;;;;0.70;0.60;;;;;;;;;;5010801;28;20691;-72
2023/02/10 04:46:15;;;;;;;0.80;0.75;;;;;;;;;;5011347;28;20562;-74
2023/02/10 04:48:41;;;;;;;1.02;1.00;;;;;;;;;;5005277;28;20295;-74
2023/02/10 04:51:09;;;;;;;0.70;0.70;;;;;;;;;;5000977;28;20224;-73
2023/02/10 04:53:39;;;;;;;0.70;0.60;;;;;;;;;;5008411;28;20234;-74
2023/02/10 04:56:05;;;;;;;0.77;0.77;;;;;;;;;;5005682;28;20214;-74
2023/02/10 04:58:33;;;;;;;0.70;0.70;;;;;;;;;;5008204;28;20606;-74
2023/02/10 05:01:00;;;;;;;0.70;0.60;;;;;;;;;;5003991;28;20269;-74
2023/02/10 05:03:27;;;;;;;0.80;0.80;;;;;;;;;;5000130;28;20556;-74
2023/02/10 05:05:55;;;;;;;0.70;0.70;;;;;;;;;;5007353;28;20218;-74
2023/02/10 05:08:23;;;;;;;0.85;0.85;;;;;;;;;;5003662;28;20721;-73
2023/02/10 05:10:52;;;;;;;1.02;1.02;;;;;;;;;;5004424;28;20341;-73
2023/02/10 05:13:19;;;;;;;0.90;0.90;;;;;;;;;;5006757;28;20198;-74
2023/02/10 05:15:46;;;;;;;0.85;0.85;;;;;;;;;;5010450;28;20195;-74
2023/02/10 05:18:13;;;;;;;0.70;0.70;;;;;;;;;;5010310;28;20194;-73
2023/02/10 05:20:42;;;;;;;0.80;0.80;;;;;;;;;;5007363;28;20234;-74
2023/02/10 05:23:09;;;;;;;0.90;0.90;;;;;;;;;;5006513;28;20203;-73
2023/02/10 05:25:40;;;;;;;0.68;0.60;;;;;;;;;;5005861;28;20667;-74
2023/02/10 05:28:08;;;;;;;0.73;0.73;;;;;;;;;;5006810;28;20508;-73
2023/02/10 05:30:35;;;;;;;1.90;1.80;;;;;;;;;;5008546;28;20227;-73
2023/02/10 05:33:02;;;;;;;0.70;0.70;;;;;;;;;;5009659;28;20673;-74
2023/02/10 05:35:31;;;;;;;0.70;0.70;;;;;;;;;;5005398;28;20328;-74
2023/02/10 05:38:01;;;;;;;0.70;0.60;;;;;;;;;;5008035;28;20301;-73
2023/02/10 05:40:28;;;;;;;0.90;0.90;;;;;;;;;;5007197;28;20194;-73
2023/02/10 05:42:56;;;;;;;0.70;0.70;;;;;;;;;;5008033;28;20896;-74
2023/02/10 05:45:24;;;;;;;0.70;0.70;;;;;;;;;;5008926;28;20241;-73
2023/02/10 05:47:51;;;;;;;0.70;0.70;;;;;;;;;;5007223;28;20199;-73
2023/02/10 05:50:18;;;;;;;0.73;0.63;;;;;;;;;;5010471;28;20194;-73
2023/02/10 05:52:45;;;;;;;0.70;0.70;;;;;;;;;;5009596;28;20280;-73
2023/02/10 05:55:13;;;;;;;1.85;1.75;;;;;;;;;;5011007;28;20321;-74
2023/02/10 05:57:39;;;;;;;0.65;0.60;;;;;;;;;;5010225;28;20190;-74
2023/02/10 06:00:07;;;;;;;0.60;0.60;;;;;;;;;;5010377;28;20289;-74
2023/02/10 06:02:39;;;;;;;0.80;0.80;;;;;;;;;;5006966;28;20601;-74
2023/02/10 06:05:05;;;;;;;0.60;0.60;;;;;;;;;;5009276;28;20187;-73
2023/02/10 06:07:32;;;;;;;0.68;0.63;;;;;;;;;;5008525;28;20770;-74
2023/02/10 06:09:59;;;;;;;0.70;0.70;;;;;;;;;;5008215;28;20237;-73
2023/02/10 06:12:26;;;;;;;0.70;0.70;;;;;;;;;;5007639;28;20563;-74
2023/02/10 06:14:53;;;;;;;0.80;0.80;;;;;;;;;;5009064;28;20248;-73
2023/02/10 06:17:20;;;;;;;0.70;0.70;;;;;;;;;;5007354;28;20198;-74
2023/02/10 06:19:48;;;;;;;0.70;0.60;;;;;;;;;;5006670;28;20202;-73
2023/02/10 06:22:15;;;;;;;0.80;0.80;;;;;;;;;;5002153;28;20191;-74
2023/02/10 06:24:44;;;;;;;0.80;0.80;;;;;;;;;;5010326;28;20219;-73
2023/02/10 06:27:11;;;;;;;0.70;0.60;;;;;;;;;;5008388;28;20290;-73
2023/02/10 06:29:37;;;;;;;2.95;2.03;;;;;;;;;;5009516;28;20340;-73
2023/02/10 06:32:05;;;;;;;0.82;0.82;;;;;;;;;;5005705;28;20210;-73
2023/02/10 06:34:32;;;;;;;0.80;0.80;;;;;;;;;;5010463;28;20261;-74
2023/02/10 06:37:01;;;;;;;1.35;1.25;;;;;;;;;;5004639;28;20265;-73
2023/02/10 06:39:27;;;;;;;0.70;0.70;;;;;;;;;;5010267;28;20242;-72
2023/02/10 06:41:57;;;;;;;0.70;0.60;;;;;;;;;;5008271;28;20201;-73
2023/02/10 06:44:24;;;;;;;0.70;0.60;;;;;;;;;;5012027;28;20218;-74
2023/02/10 06:46:51;;;;;;;1.70;1.60;;;;;;;;;;5006295;28;20182;-74
2023/02/10 06:49:18;;;;;;;0.63;0.60;;;;;;;;;;5004310;28;20195;-74
2023/02/10 06:51:47;;;;;;;0.70;0.70;;;;;;;;;;5000314;28;20222;-73
2023/02/10 06:54:16;;;;;;;0.70;0.60;;;;;;;;;;5011892;28;20319;-74
2023/02/10 06:56:45;;;;;;;0.90;0.90;;;;;;;;;;5013518;28;20195;-75
2023/02/10 06:59:13;;;;;;;0.70;0.70;;;;;;;;;;5009217;28;20198;-74
2023/02/10 07:02:00;;;;;;;0.80;0.80;;;;;;;;;;5012036;28;20183;-74
2023/02/10 07:04:49;;;;;;;0.63;0.63;;;;;;;;;;5014513;28;20319;-75
2023/02/10 07:07:16;;;;;;;0.63;0.63;;;;;;;;;;5011586;28;20233;-75
2023/02/10 07:09:44;;;;;;;0.68;0.60;;;;;;;;;;4992460;28;20219;-76
2023/02/10 07:12:10;;;;;;;0.60;0.60;;;;;;;;;;5010708;28;20689;-74
2023/02/10 07:14:38;;;;;;;0.70;0.70;;;;;;;;;;5012930;28;20492;-74
2023/02/10 07:17:05;;;;;;;0.80;0.80;;;;;;;;;;5008036;28;20198;-73
2023/02/10 07:19:32;;;;;;;0.70;0.68;;;;;;;;;;5014044;28;21323;-75
2023/02/10 07:22:01;;;;;;;0.70;0.70;;;;;;;;;;5009455;28;20203;-75
2023/02/10 07:24:28;;;;;;;0.80;0.80;;;;;;;;;;5012500;28;20242;-75
2023/02/10 07:26:56;;;;;;;0.60;0.60;;;;;;;;;;5008703;28;20667;-75
2023/02/10 07:29:23;;;;;;;0.70;0.70;;;;;;;;;;5012493;28;20201;-75
2023/02/10 07:31:50;;;;;;;0.60;0.60;;;;;;;;;;5010059;28;20219;-75
2023/02/10 07:34:19;;;;;;;0.63;0.60;;;;;;;;;;5012807;28;20191;-75
2023/02/10 07:36:46;;;;;;;0.60;0.50;;;;;;;;;;5014013;28;20260;-75
2023/02/10 07:39:13;;;;;;;0.65;0.60;;;;;;;;;;4996445;28;20242;-75
2023/02/10 07:41:41;;;;;;;0.70;0.70;;;;;;;;;;5010796;28;20183;-74
2023/02/10 07:44:08;;;;;;;0.85;0.85;;;;;;;;;;5006071;28;20195;-74
2023/02/10 07:46:36;;;;;;;0.60;0.60;;;;;;;;;;5009377;28;21096;-74
2023/02/10 07:49:02;;;;;;;0.60;0.50;;;;;;;;;;4992751;28;20298;-74
2023/02/10 07:51:47;;;;;;;0.60;0.60;;;;;;;;;;5008974;28;20784;-74
2023/02/10 07:54:14;;;;;;;0.60;0.60;;;;;;;;;;5009521;28;20268;-75
2023/02/10 07:56:44;;;;;;;0.80;0.80;;;;;;;;;;5007005;28;20692;-74
2023/02/10 07:59:13;;;;;;;0.70;0.70;;;;;;;;;;5010838;28;20187;-74
2023/02/10 08:01:41;;;;;;;0.93;0.93;;;;;;;;;;5008724;28;20226;-74
2023/02/10 08:04:08;;;;;;;0.60;0.50;;;;;;;;;;5010598;28;20195;-74
2023/02/10 08:06:35;;;;;;;0.60;0.60;;;;;;;;;;4998524;28;20853;-74
2023/02/10 08:09:02;;;;;;;0.60;0.60;;;;;;;;;;5010136;28;20313;-74
2023/02/10 08:11:29;;;;;;;0.60;0.60;;;;;;;;;;5011201;28;20713;-74
2023/02/10 08:13:58;;;;;;;3.60;1.05;;;;;;;;;;5007096;28;21106;-73
2023/02/10 08:16:26;;;;;;;0.75;0.75;;;;;;;;;;5088122;22;20630;-75
2023/02/10 08:18:54;;;;;;;0.60;0.50;;;;;;;;;;5004022;28;20326;-76
2023/02/10 08:21:22;;;;;;;0.60;0.50;;;;;;;;;;4999796;28;20270;-75
2023/02/10 08:23:54;;;;;;;0.60;0.60;;;;;;;;;;5000797;28;20196;-75
2023/02/10 08:26:22;;;;;;;2.47;1.35;;;;;;;;;;4998169;28;20538;-76
2023/02/10 08:28:49;;;;;;;1.20;1.10;;;;;;;;;;4986105;28;20196;-75
2023/02/10 08:31:16;;;;;;;0.60;0.60;;;;;;;;;;4985576;28;20207;-75
2023/02/10 08:33:45;;;;;;;0.60;0.60;;;;;;;;;;4977468;28;20214;-75
2023/02/10 08:36:14;;;;;;;0.73;0.73;;;;;;;;;;4980017;28;20207;-75
2023/02/10 08:38:41;;;;;;;0.70;0.70;;;;;;;;;;4977679;28;20231;-76
2023/02/10 08:41:08;;;;;;;0.60;0.50;;;;;;;;;;4978176;28;20694;-77
2023/02/10 08:43:35;;;;;;;0.60;0.52;;;;;;;;;;4976961;28;20215;-75
2023/02/10 08:46:02;;;;;;;0.60;0.50;;;;;;;;;;4982143;28;20346;-76
2023/02/10 08:48:30;;;;;;;0.60;0.60;;;;;;;;;;4980191;28;20253;-76
2023/02/10 08:50:58;;;;;;;0.60;0.60;;;;;;;;;;4981535;28;20597;-75
2023/02/10 08:53:25;;;;;;;0.60;0.60;;;;;;;;;;4981044;28;20296;-74
2023/02/10 08:55:55;;;;;;;0.65;0.65;;;;;;;;;;4978749;28;20215;-76
2023/02/10 08:58:26;;;;;;;1.17;1.13;;;;;;;;;;4993936;28;20191;-74
2023/02/10 09:00:53;;;;;;;0.50;0.50;;;;;;;;;;4963514;28;20238;-76
2023/02/10 09:03:20;;;;;;;3.25;1.05;;;;;;;;;;4977577;28;20718;-75
2023/02/10 09:05:48;;;;;;;0.50;0.50;;;;;;;;;;4980559;28;20278;-76
2023/02/10 09:08:16;;;;;;;0.60;0.60;;;;;;;;;;4978817;28;20191;-75
2023/02/10 09:10:44;;;;;;;0.57;0.50;;;;;;;;;;4982211;28;20200;-73
2023/02/10 09:13:11;;;;;;;2.45;1.05;;;;;;;;;;4980931;28;20720;-75
2023/02/10 09:15:38;;;;;;;1.50;1.40;;;;;;;;;;4977685;28;20741;-75
2023/02/10 09:18:05;;;;;;;0.50;0.50;;;;;;;;;;4979513;28;20199;-75
2023/02/10 09:20:32;;;;;;;0.50;0.50;;;;;;;;;;4975986;28;20246;-74
2023/02/10 09:22:59;;;;;;;0.63;0.63;;;;;;;;;;4977770;28;20447;-75
2023/02/10 09:25:28;;;;;;;0.60;0.50;;;;;;;;;;4980018;28;20776;-75
2023/02/10 09:27:57;;;;;;;0.60;0.60;;;;;;;;;;4975591;28;20556;-75
2023/02/10 09:30:24;;;;;;;0.60;0.60;;;;;;;;;;4980106;28;20482;-73
2023/02/10 09:33:13;;;;;;;1.53;1.43;;;;;;;;;;4977861;28;20482;-74
2023/02/10 09:35:40;;;;;;;0.60;0.60;;;;;;;;;;4991894;28;20864;-75
2023/02/10 09:38:08;;;;;;;0.60;0.60;;;;;;;;;;4978814;28;20459;-75
2023/02/10 09:40:40;;;;;;;0.70;0.70;;;;;;;;;;4977297;28;20452;-74
2023/02/10 09:43:13;;;;;;;0.70;0.70;;;;;;;;;;4975461;28;20449;-75
2023/02/10 09:45:40;;;;;;;1.33;1.00;;;;;;;;;;4978889;28;20892;-75
2023/02/10 09:48:25;;;;;;;0.70;0.70;;;;;;;;;;4975958;28;20486;-76
2023/02/10 09:50:59;;;;;;;0.80;0.80;;;;;;;;;;4963489;28;21494;-74
2023/02/10 09:53:27;;;;;;;0.70;0.60;;;;;;;;;;4978500;28;21059;-75
2023/02/10 09:55:57;;;;;;;0.70;0.60;;;;;;;;;;4977878;28;20465;-73
2023/02/10 09:58:28;;;;;;;1.43;1.33;;;;;;;;;;4978201;28;20505;-74
2023/02/10 10:00:58;;;;;;;1.13;1.03;;;;;;;;;;4977965;28;20502;-73
2023/02/10 10:03:26;;;;;;;1.13;1.03;;;;;;;;;;4980946;28;20788;-74
2023/02/10 10:05:57;;;;;;;0.97;0.87;;;;;;;;;;4991226;28;20873;-75
2023/02/10 10:08:29;;;;;;;0.70;0.67;;;;;;;;;;4981468;28;20459;-73
2023/02/10 10:11:00;;;;;;;0.70;0.60;;;;;;;;;;4983444;28;20444;-75
2023/02/10 10:13:28;;;;;;;0.70;0.60;;;;;;;;;;4999167;28;20522;-75
2023/02/10 10:16:05;;;;;;;0.70;0.70;;;;;;;;;;4977614;28;20495;-74
2023/02/10 10:18:36;;;;;;;0.77;0.70;;;;;;;;;;4996037;28;20461;-74
2023/02/10 10:21:06;;;;;;;1.37;1.27;;;;;;;;;;4980840;28;20535;-75
2023/02/10 10:23:37;;;;;;;1.43;1.33;;;;;;;;;;4979139;28;20555;-75
2023/02/10 10:26:24;;;;;;;1.53;1.43;;;;;;;;;;4977766;28;20905;-74
2023/02/10 10:29:09;;;;;;;0.70;0.70;;;;;;;;;;4981476;28;20809;-73
2023/02/10 10:31:37;;;;;;;0.70;0.70;;;;;;;;;;4979637;28;21060;-74
2023/02/10 10:34:09;;;;;;;7.23;2.67;;;;;;;;;;4961744;28;20472;-74
2023/02/10 10:36:37;;;;;;;0.70;0.70;;;;;;;;;;4979943;28;20449;-74
2023/02/10 10:39:09;;;;;;;0.80;0.73;;;;;;;;;;4976605;28;20438;-74
2023/02/10 10:41:38;;;;;;;0.80;0.80;;;;;;;;;;4990757;28;20703;-74
2023/02/10 10:44:05;;;;;;;0.70;0.70;;;;;;;;;;4978520;28;20479;-74
2023/02/10 10:46:35;;;;;;;1.30;1.20;;;;;;;;;;4994235;28;20484;-74
2023/02/10 10:49:02;;;;;;;1.93;1.83;;;;;;;;;;4980525;28;20856;-74
2023/02/10 10:51:30;;;;;;;6.20;2.03;;;;;;;;;;4962543;28;20806;-74
2023/02/10 10:53:59;;;;;;;0.77;0.77;;;;;;;;;;4979914;28;20493;-74
2023/02/10 10:56:32;;;;;;;0.70;0.70;;;;;;;;;;4979900;28;20538;-76
2023/02/10 10:59:02;;;;;;;2.60;2.03;;;;;;;;;;4975501;28;20469;-74
2023/02/10 11:01:31;;;;;;;2.23;2.13;;;;;;;;;;4973968;28;20474;-75
2023/02/10 11:04:06;;;;;;;0.70;0.70;;;;;;;;;;4981352;28;20945;-74
2023/02/10 11:06:34;;;;;;;1.40;1.30;;;;;;;;;;4994566;28;20522;-74
2023/02/10 11:09:02;;;;;;;0.97;0.97;;;;;;;;;;4981231;28;21773;-73
2023/02/10 11:11:33;;;;;;;1.40;1.30;;;;;;;;;;4992608;28;20496;-74
2023/02/10 11:14:13;;;;;;;1.93;1.83;;;;;;;;;;4980044;28;21004;-73
2023/02/10 11:16:42;;;;;;;3.57;2.90;;;;;;;;;;4979992;28;20483;-74
2023/02/10 11:19:16;;;;;;;0.97;0.97;;;;;;;;;;4977924;28;20486;-73
2023/02/10 11:21:44;;;;;;;0.70;0.60;;;;;;;;;;4996196;28;20453;-73
2023/02/10 11:24:19;;;;;;;1.20;1.10;;;;;;;;;;4982011;28;20457;-73
2023/02/10 11:26:57;;;;;;;0.90;0.90;;;;;;;;;;4976823;28;21023;-73
2023/02/10 11:29:26;;;;;;;0.90;0.90;;;;;;;;;;4979031;28;20459;-75
2023/02/10 11:32:18;;;;;;;0.90;0.90;;;;;;;;;;4990840;28;20481;-73
2023/02/10 11:35:14;;;;;;;0.70;0.60;;;;;;;;;;4976603;28;20443;-71
2023/02/10 11:37:43;;;;;;;1.13;1.03;;;;;;;;;;4977150;28;20470;-74
2023/02/10 11:40:17;;;;;;;0.70;0.70;;;;;;;;;;4981295;28;20546;-73
2023/02/10 11:42:46;;;;;;;0.70;0.70;;;;;;;;;;4998274;28;20460;-72
2023/02/10 11:45:18;;;;;;;1.90;1.80;;;;;;;;;;4983390;28;20450;-73
2023/02/10 11:48:02;;;;;;;6.17;2.03;;;;;;;;;;4982697;28;20475;-73
2023/02/10 11:50:31;;;;;;;1.20;0.90;;;;;;;;;;4984348;28;20969;-75
2023/02/10 11:53:22;;;;;;;1.77;1.67;;;;;;;;;;4979145;28;20564;-75
2023/02/10 11:55:52;;;;;;;0.70;0.60;;;;;;;;;;4996245;28;20473;-74
2023/02/10 12:01:29;;;;;;;1.40;1.30;;;;;;;;;;4982876;28;20537;-73
2023/02/10 12:04:01;;;;;;;0.70;0.70;;;;;;;;;;4986553;28;20445;-72
2023/02/10 12:06:32;;;;;;;1.83;1.73;;;;;;;;;;4981719;28;20526;-74
2023/02/10 12:09:07;;;;;;;0.70;0.70;;;;;;;;;;4981897;28;20450;-72
2023/02/10 12:11:39;;;;;;;6.43;2.20;;;;;;;;;;4980521;28;20448;-75
2023/02/10 12:14:19;;;;;;;1.73;1.63;;;;;;;;;;4983339;28;20526;-71
2023/02/10 12:16:50;;;;;;;2.50;2.00;;;;;;;;;;4998238;28;20525;-73
2023/02/10 12:19:24;;;;;;;1.47;1.37;;;;;;;;;;4980286;28;20857;-73
2023/02/10 12:21:56;;;;;;;0.70;0.70;;;;;;;;;;4980977;28;20531;-73
2023/02/10 12:24:29;;;;;;;1.30;1.20;;;;;;;;;;4981420;28;20541;-73
2023/02/10 12:26:59;;;;;;;0.80;0.80;;;;;;;;;;4980754;28;20539;-73
2023/02/10 12:29:33;;;;;;;0.70;0.70;;;;;;;;;;4978311;28;20490;-72
2023/02/10 12:32:07;;;;;;;1.37;1.27;;;;;;;;;;4982192;28;20471;-74
2023/02/10 12:34:44;;;;;;;1.40;1.30;;;;;;;;;;4981565;28;21102;-75
2023/02/10 12:37:19;;;;;;;1.07;0.97;;;;;;;;;;4981026;28;20451;-74
2023/02/10 12:39:51;;;;;;;0.70;0.70;;;;;;;;;;4998455;28;20459;-72
2023/02/10 12:42:26;;;;;;;9.90;2.03;;;;;;;;;;4981905;28;20447;-72
2023/02/10 12:44:58;;;;;;;0.70;0.60;;;;;;;;;;4994001;28;20535;-73
2023/02/10 12:47:31;;;;;;;1.67;1.57;;;;;;;;;;4980704;28;21031;-74
2023/02/10 12:50:04;;;;;;;1.80;1.17;;;;;;;;;;4979500;28;20469;-74
2023/02/10 12:52:34;;;;;;;1.37;1.27;;;;;;;;;;4981402;28;20453;-72
2023/02/10 12:55:04;;;;;;;1.00;0.87;;;;;;;;;;4981682;28;20803;-75
2023/02/10 12:57:36;;;;;;;0.70;0.60;;;;;;;;;;4997411;28;20788;-75
2023/02/10 13:00:06;;;;;;;0.87;0.87;;;;;;;;;;4980850;28;20446;-74
2023/02/10 13:02:38;;;;;;;1.83;1.47;;;;;;;;;;4983532;28;20456;-74
2023/02/10 13:05:08;;;;;;;0.70;0.70;;;;;;;;;;4980243;28;20808;-74
2023/02/10 13:07:40;;;;;;;0.70;0.70;;;;;;;;;;4993382;28;21074;-74
2023/02/10 13:10:15;;;;;;;0.73;0.70;;;;;;;;;;4981484;28;20509;-74
2023/02/10 13:12:43;;;;;;;0.70;0.70;;;;;;;;;;4982258;28;20492;-73
2023/02/10 13:15:14;;;;;;;0.70;0.60;;;;;;;;;;4983722;28;20528;-72
2023/02/10 13:17:44;;;;;;;0.77;0.70;;;;;;;;;;4981287;28;20857;-73
2023/02/10 13:20:19;;;;;;;0.70;0.60;;;;;;;;;;4982412;28;20466;-73
2023/02/10 13:22:50;;;;;;;1.03;0.93;;;;;;;;;;4979131;28;20884;-74
2023/02/10 13:25:21;;;;;;;6.10;2.60;;;;;;;;;;4978220;28;20455;-74
2023/02/10 13:27:52;;;;;;;0.70;0.70;;;;;;;;;;4979547;28;20967;-75
2023/02/10 13:30:30;;;;;;;0.70;0.70;;;;;;;;;;4981292;28;20509;-73
2023/02/10 13:33:03;;;;;;;2.20;1.07;;;;;;;;;;4982902;28;20449;-73
2023/02/10 13:35:31;;;;;;;0.70;0.70;;;;;;;;;;4978191;28;20511;-74
2023/02/10 13:38:00;;;;;;;0.70;0.60;;;;;;;;;;4984440;28;20863;-73
2023/02/10 13:40:28;;;;;;;0.70;0.70;;;;;;;;;;4981410;28;20457;-73
2023/02/10 13:42:56;;;;;;;0.70;0.70;;;;;;;;;;4979326;28;21053;-75
2023/02/10 13:45:24;;;;;;;1.70;1.53;;;;;;;;;;4994376;28;20590;-73
2023/02/10 13:47:52;;;;;;;0.70;0.70;;;;;;;;;;4978676;28;20942;-74
2023/02/10 13:50:24;;;;;;;0.70;0.60;;;;;;;;;;4968112;28;20459;-74
2023/02/10 13:52:57;;;;;;;0.70;0.70;;;;;;;;;;4993241;28;20473;-75
2023/02/10 13:55:35;;;;;;;0.70;0.70;;;;;;;;;;4977401;28;20530;-74
2023/02/10 13:58:15;;;;;;;0.70;0.70;;;;;;;;;;4980493;28;20462;-74
2023/02/10 14:00:43;;;;;;;0.70;0.70;;;;;;;;;;4977969;28;20530;-73
2023/02/10 14:03:19;;;;;;;1.03;0.97;;;;;;;;;;4995515;28;20534;-74
2023/02/10 14:05:52;;;;;;;0.70;0.70;;;;;;;;;;4995760;28;20462;-73
2023/02/10 14:08:27;;;;;;;0.70;0.60;;;;;;;;;;4975317;28;20490;-74
2023/02/10 14:10:56;;;;;;;0.70;0.70;;;;;;;;;;4995207;28;21096;-74
2023/02/10 14:13:25;;;;;;;0.83;0.83;;;;;;;;;;4992677;28;20455;-73
2023/02/10 14:15:55;;;;;;;2.30;1.83;;;;;;;;;;4980685;28;20479;-73
2023/02/10 14:18:23;;;;;;;0.80;0.80;;;;;;;;;;4977595;28;20470;-72
2023/02/10 14:20:56;;;;;;;0.70;0.70;;;;;;;;;;4974871;28;20474;-73
2023/02/10 14:23:23;;;;;;;0.70;0.70;;;;;;;;;;4974677;28;20508;-73
2023/02/10 14:26:13;;;;;;;1.20;1.10;;;;;;;;;;4979705;28;20449;-73
2023/02/10 14:28:41;;;;;;;0.70;0.67;;;;;;;;;;4979844;28;20465;-73
2023/02/10 14:31:12;;;;;;;0.80;0.70;;;;;;;;;;4978939;28;20466;-73
2023/02/10 14:34:02;;;;;;;0.70;0.70;;;;;;;;;;4980397;28;21073;-74
2023/02/10 14:36:31;;;;;;;0.90;0.90;;;;;;;;;;4979689;28;21008;-73
2023/02/10 14:39:00;;;;;;;0.90;0.90;;;;;;;;;;4976098;28;20542;-74
2023/02/10 14:41:28;;;;;;;0.70;0.60;;;;;;;;;;4996283;28;20946;-72
2023/02/10 14:43:57;;;;;;;0.70;0.70;;;;;;;;;;4978648;28;22146;-76
2023/02/10 14:46:25;;;;;;;0.80;0.80;;;;;;;;;;4977460;28;20829;-73
2023/02/10 14:48:54;;;;;;;0.80;0.80;;;;;;;;;;4977329;28;20450;-75
2023/02/10 14:51:23;;;;;;;0.70;0.70;;;;;;;;;;4981042;28;21203;-72
2023/02/10 14:53:51;;;;;;;1.20;1.10;;;;;;;;;;4994230;28;20486;-73
2023/02/10 14:56:21;;;;;;;0.70;0.70;;;;;;;;;;4996187;28;20859;-73
2023/02/10 14:58:48;;;;;;;0.70;0.63;;;;;;;;;;4978145;28;20457;-73
2023/02/10 15:01:22;;;;;;;1.27;1.17;;;;;;;;;;4976344;28;20482;-73
2023/02/10 15:03:50;;;;;;;0.80;0.80;;;;;;;;;;4992685;28;20453;-73
2023/02/10 15:06:18;;;;;;;0.80;0.80;;;;;;;;;;4977533;28;20512;-73
2023/02/10 15:08:49;;;;;;;0.70;0.70;;;;;;;;;;4993792;28;20462;-74
2023/02/10 15:14:09;;;;;;;0.73;0.73;;;;;;;;;;4983139;28;20536;-74
2023/02/10 15:16:37;;;;;;;0.70;0.60;;;;;;;;;;4996655;28;20674;-74